createdAt,value
2022-11-23T00:01:48.906Z,97.80
2022-11-23T00:04:50.534Z,97.70
2022-11-23T00:07:52.138Z,97.80
2022-11-23T00:10:57.660Z,97.70
2022-11-23T00:13:59.235Z,97.70
2022-11-23T00:17:00.960Z,97.80
2022-11-23T00:20:02.553Z,97.70
2022-11-23T00:23:04.123Z,97.80
2022-11-23T00:26:06.768Z,97.80
2022-11-23T00:29:08.348Z,97.70
2022-11-23T00:32:09.907Z,97.70
2022-11-23T00:35:11.456Z,97.80
2022-11-23T00:38:13.123Z,97.80
2022-11-23T00:41:17.582Z,97.80
2022-11-23T00:44:19.315Z,97.80
2022-11-23T00:47:20.875Z,97.80
2022-11-23T00:50:22.541Z,97.90
2022-11-23T00:53:24.061Z,98.00
2022-11-23T00:56:26.533Z,97.70
2022-11-23T00:59:29.699Z,97.70
2022-11-23T01:02:33.709Z,97.90
2022-11-23T01:05:38.436Z,97.70
2022-11-23T01:08:41.271Z,97.70
2022-11-23T01:11:45.141Z,97.60
2022-11-23T01:14:46.759Z,97.90
2022-11-23T01:17:48.404Z,97.80
2022-11-23T01:20:49.944Z,97.90
2022-11-23T01:23:52.041Z,97.90
2022-11-23T01:26:55.125Z,97.80
2022-11-23T01:29:56.855Z,98.00
2022-11-23T01:32:58.431Z,97.80
2022-11-23T01:36:01.244Z,97.90
2022-11-23T01:39:04.415Z,97.90
2022-11-23T01:42:08.459Z,98.50
2022-11-23T01:45:39.589Z,98.80
2022-11-23T01:48:57.767Z,97.50
2022-11-23T01:52:05.121Z,97.40
2022-11-23T01:55:08.633Z,98.20
2022-11-23T01:58:12.655Z,98.00
2022-11-23T02:01:16.838Z,98.80
2022-11-23T02:04:24.183Z,98.10
2022-11-23T02:07:26.274Z,98.20
2022-11-23T02:10:30.990Z,98.00
2022-11-23T02:13:32.575Z,98.50
2022-11-23T02:16:35.024Z,98.00
2022-11-23T02:20:03.629Z,97.90
2022-11-23T02:23:14.229Z,97.20
2022-11-23T02:26:28.032Z,97.10
2022-11-23T02:29:29.938Z,97.30
2022-11-23T02:32:33.326Z,98.00
2022-11-23T02:35:35.252Z,98.10
2022-11-23T02:38:36.798Z,98.00
2022-11-23T02:41:48.559Z,97.90
2022-11-23T02:45:23.404Z,97.80
2022-11-23T02:48:26.236Z,97.30
2022-11-23T02:51:27.736Z,98.20
2022-11-23T02:54:29.857Z,97.90
2022-11-23T02:57:31.495Z,97.90
2022-11-23T03:00:33.833Z,97.70
2022-11-23T03:03:35.408Z,97.80
2022-11-23T03:06:37.449Z,97.70
2022-11-23T03:09:38.978Z,97.80
2022-11-23T03:12:40.523Z,97.70
2022-11-23T03:15:42.177Z,97.90
2022-11-23T03:18:43.835Z,97.70
2022-11-23T03:21:45.380Z,97.90
2022-11-23T03:24:47.030Z,97.80
2022-11-23T03:27:48.736Z,98.00
2022-11-23T03:30:50.249Z,98.00
2022-11-23T03:33:51.819Z,98.20
2022-11-23T03:36:53.363Z,98.10
2022-11-23T03:39:54.912Z,98.20
2022-11-23T03:42:56.439Z,98.20
2022-11-23T03:45:57.973Z,98.40
2022-11-23T03:48:59.477Z,98.40
2022-11-23T03:52:01.010Z,97.90
2022-11-23T03:55:02.578Z,98.40
2022-11-23T03:58:04.262Z,98.50
2022-11-23T04:01:05.846Z,98.60
2022-11-23T04:04:07.398Z,98.60
2022-11-23T04:07:09.237Z,98.50
2022-11-23T04:10:10.906Z,98.60
2022-11-23T04:13:12.618Z,98.60
2022-11-23T04:16:14.446Z,98.80
2022-11-23T04:19:16.013Z,98.60
2022-11-23T04:22:17.641Z,98.60
2022-11-23T04:25:19.281Z,98.50
2022-11-23T04:28:20.810Z,98.90
2022-11-23T04:31:22.432Z,98.70
2022-11-23T04:34:23.970Z,98.60
2022-11-23T04:37:25.518Z,98.70
2022-11-23T04:40:27.087Z,98.60
2022-11-23T04:43:28.706Z,98.70
2022-11-23T04:46:30.295Z,98.90
2022-11-23T04:49:32.202Z,98.70
2022-11-23T04:52:34.035Z,98.80
2022-11-23T04:55:35.676Z,98.70
2022-11-23T04:58:37.374Z,98.70
2022-11-23T05:01:38.999Z,98.90
2022-11-23T05:04:40.681Z,98.70
2022-11-23T05:07:42.283Z,98.70
2022-11-23T05:10:43.862Z,98.80
2022-11-23T05:13:45.424Z,98.70
2022-11-23T05:16:46.980Z,98.90
2022-11-23T05:19:48.578Z,98.80
2022-11-23T05:22:50.098Z,98.80
2022-11-23T05:25:51.684Z,98.80
2022-11-23T05:28:53.214Z,98.80
2022-11-23T05:31:55.078Z,98.90
2022-11-23T05:34:56.616Z,98.70
2022-11-23T05:37:58.260Z,98.90
2022-11-23T05:40:59.765Z,98.80
2022-11-23T05:44:01.314Z,98.80
2022-11-23T05:47:02.840Z,98.70
2022-11-23T05:50:05.267Z,99.00
2022-11-23T05:53:06.837Z,98.70
2022-11-23T05:56:08.574Z,98.80
2022-11-23T05:59:11.608Z,98.80
2022-11-23T06:02:13.231Z,99.20
2022-11-23T06:05:14.915Z,98.80
2022-11-23T06:08:16.487Z,98.90
2022-11-23T06:11:18.122Z,98.90
2022-11-23T06:14:19.687Z,99.10
2022-11-23T06:17:21.311Z,98.90
2022-11-23T06:20:22.861Z,99.10
2022-11-23T06:23:24.911Z,99.10
2022-11-23T06:26:26.903Z,99.10
2022-11-23T06:29:28.442Z,99.10
2022-11-23T06:32:30.265Z,99.90
2022-11-23T06:35:31.794Z,98.90
2022-11-23T06:38:33.417Z,99.20
2022-11-23T06:41:35.106Z,99.10
2022-11-23T06:44:36.653Z,99.10
2022-11-23T06:47:38.407Z,99.20
2022-11-23T06:50:39.957Z,99.20
2022-11-23T06:53:42.228Z,99.00
2022-11-23T06:56:43.780Z,99.10
2022-11-23T06:59:45.617Z,99.00
2022-11-23T07:02:54.986Z,99.00
2022-11-23T07:05:57.115Z,99.20
2022-11-23T07:08:58.727Z,99.00
2022-11-23T07:12:00.257Z,99.00
2022-11-23T07:15:01.789Z,99.10
2022-11-23T07:18:03.995Z,99.10
2022-11-23T07:21:05.537Z,99.20
2022-11-23T07:24:07.203Z,99.70
2022-11-23T07:27:08.788Z,99.20
2022-11-23T07:30:10.913Z,99.20
2022-11-23T07:33:13.112Z,99.10
2022-11-23T07:36:15.197Z,99.30
2022-11-23T07:39:16.700Z,99.20
2022-11-23T07:42:39.832Z,99.20
2022-11-23T07:45:40.417Z,99.10
2022-11-23T07:48:42.010Z,99.10
2022-11-23T07:51:43.522Z,99.20
2022-11-23T07:54:45.052Z,98.90
2022-11-23T07:57:46.687Z,98.90
2022-11-23T08:00:48.221Z,98.70
2022-11-23T08:03:49.936Z,99.00
2022-11-23T08:06:52.368Z,98.60
2022-11-23T08:09:53.907Z,98.60
2022-11-23T08:12:59.585Z,98.60
2022-11-23T08:16:01.872Z,98.70
2022-11-23T08:19:03.790Z,98.40
2022-11-23T08:22:05.386Z,98.40
2022-11-23T08:25:07.353Z,98.50
2022-11-23T08:28:12.740Z,98.20
2022-11-23T08:31:15.040Z,98.50
2022-11-23T08:34:18.506Z,98.40
2022-11-23T08:37:20.091Z,98.20
2022-11-23T08:40:25.291Z,98.10
2022-11-23T08:43:28.067Z,98.10
2022-11-23T08:46:29.966Z,98.00
2022-11-23T08:49:31.551Z,98.00
2022-11-23T08:52:33.110Z,98.20
2022-11-23T08:55:34.679Z,98.10
2022-11-23T08:58:36.798Z,98.10
2022-11-23T09:01:48.570Z,98.10
2022-11-23T09:04:50.278Z,97.30
2022-11-23T09:07:51.860Z,97.90
2022-11-23T09:10:53.507Z,98.10
2022-11-23T09:13:57.464Z,98.10
2022-11-23T09:17:01.836Z,98.00
2022-11-23T09:20:03.947Z,98.00
2022-11-23T09:23:10.502Z,97.60
2022-11-23T09:26:15.367Z,98.00
2022-11-23T09:29:17.011Z,97.70
2022-11-23T09:32:18.647Z,97.90
2022-11-23T09:35:20.799Z,97.60
2022-11-23T09:38:33.600Z,97.70
2022-11-23T09:42:05.694Z,97.00
2022-11-23T09:45:25.770Z,97.50
2022-11-23T09:48:39.250Z,96.60
2022-11-23T09:51:42.135Z,96.70
2022-11-23T09:54:45.455Z,97.30
2022-11-23T09:57:50.216Z,97.20
2022-11-23T10:01:04.496Z,97.20
2022-11-23T10:04:09.729Z,97.00
2022-11-23T10:07:17.193Z,96.90
2022-11-23T10:10:45.270Z,96.80
2022-11-23T10:14:02.621Z,96.70
2022-11-23T10:17:23.285Z,96.70
2022-11-23T10:21:12.284Z,95.90
2022-11-23T10:24:21.184Z,95.90
2022-11-23T10:27:24.528Z,96.60
2022-11-23T10:30:26.110Z,96.60
2022-11-23T10:33:34.128Z,96.40
2022-11-23T10:36:36.879Z,96.30
2022-11-23T10:39:38.395Z,96.30
2022-11-23T10:42:48.449Z,96.20
2022-11-23T10:45:50.021Z,96.10
2022-11-23T10:48:52.822Z,96.10
2022-11-23T10:52:00.451Z,96.00
2022-11-23T10:55:06.363Z,95.90
2022-11-23T10:58:28.048Z,96.00
2022-11-23T11:01:30.132Z,95.20
2022-11-23T11:04:31.945Z,95.80
2022-11-23T11:07:37.107Z,95.70
2022-11-23T11:10:59.515Z,95.50
2022-11-23T11:14:16.280Z,95.80
2022-11-23T11:17:27.950Z,94.90
2022-11-23T11:20:34.593Z,95.60
2022-11-23T11:23:41.063Z,95.70
2022-11-23T11:27:01.372Z,95.60
2022-11-23T11:30:10.485Z,95.50
2022-11-23T11:33:18.259Z,95.20
2022-11-23T11:36:21.141Z,95.50
2022-11-23T11:39:39.153Z,95.70
2022-11-23T11:42:54.221Z,94.60
2022-11-23T11:46:21.870Z,94.40
2022-11-23T11:49:31.319Z,95.20
2022-11-23T11:52:40.358Z,94.30
2022-11-23T11:56:13.482Z,95.00
2022-11-23T11:59:32.556Z,94.20
2022-11-23T12:02:42.912Z,94.10
2022-11-23T12:05:53.506Z,95.00
2022-11-23T12:09:16.574Z,95.10
2022-11-23T12:12:23.880Z,94.90
2022-11-23T12:15:53.374Z,94.90
2022-11-23T12:19:10.272Z,94.80
2022-11-23T12:22:38.184Z,94.10
2022-11-23T12:25:48.165Z,94.60
2022-11-23T12:29:15.050Z,94.40
2022-11-23T12:32:16.521Z,94.40
2022-11-23T12:35:55.672Z,94.60
2022-11-23T12:39:23.945Z,93.60
2022-11-23T12:42:35.529Z,94.20
2022-11-23T12:45:55.516Z,93.20
2022-11-23T12:49:06.331Z,93.20
2022-11-23T12:52:32.028Z,93.20
2022-11-23T12:55:59.848Z,93.60
2022-11-23T12:59:01.394Z,93.30
2022-11-23T13:02:06.619Z,94.00
2022-11-23T13:05:30.418Z,94.20
2022-11-23T13:09:09.444Z,93.10
2022-11-23T13:12:23.134Z,93.30
2022-11-23T13:16:00.134Z,93.40
2022-11-23T13:19:12.124Z,93.30
2022-11-23T13:22:19.975Z,93.30
2022-11-23T13:25:26.181Z,94.10
2022-11-23T13:28:31.443Z,94.60
2022-11-23T13:31:35.781Z,94.20
2022-11-23T13:34:45.667Z,94.10
2022-11-23T13:37:56.259Z,94.20
2022-11-23T13:40:57.991Z,94.10
2022-11-23T13:44:11.989Z,94.30
2022-11-23T13:47:14.841Z,94.30
2022-11-23T13:50:20.665Z,94.30
2022-11-23T13:53:40.612Z,93.90
2022-11-23T13:56:44.018Z,93.40
2022-11-23T14:00:16.790Z,94.40
2022-11-23T14:03:40.627Z,93.70
2022-11-23T14:06:57.799Z,93.50
2022-11-23T14:10:13.443Z,94.80
2022-11-23T14:13:28.449Z,95.20
2022-11-23T14:17:09.180Z,95.10
2022-11-23T14:20:16.348Z,93.50
2022-11-23T14:23:46.011Z,95.10
2022-11-23T14:31:16.287Z,93.10
2022-11-23T14:34:31.921Z,93.70
2022-11-23T14:38:02.042Z,94.60
2022-11-23T14:41:14.724Z,94.70
2022-11-23T14:44:18.849Z,93.50
2022-11-23T14:47:28.928Z,94.10
2022-11-23T14:50:31.396Z,94.10
2022-11-23T14:53:36.402Z,94.10
2022-11-23T14:56:49.340Z,94.30
2022-11-23T14:59:55.865Z,94.50
2022-11-23T15:03:27.009Z,96.60
2022-11-23T15:06:33.291Z,93.80
2022-11-23T15:09:50.137Z,93.70
2022-11-23T15:12:51.708Z,93.70
2022-11-23T15:16:09.735Z,93.70
2022-11-23T15:19:29.258Z,92.80
2022-11-23T15:22:33.442Z,94.10
2022-11-23T15:25:35.031Z,93.60
2022-11-23T15:28:41.876Z,93.60
2022-11-23T15:32:00.459Z,93.70
2022-11-23T15:35:10.227Z,93.60
2022-11-23T15:38:19.075Z,93.30
2022-11-23T15:41:25.749Z,93.90
2022-11-23T15:44:32.651Z,93.70
2022-11-23T15:47:37.977Z,93.70
2022-11-23T15:51:12.766Z,93.90
2022-11-23T15:54:23.580Z,94.00
2022-11-23T15:57:26.376Z,93.20
2022-11-23T16:00:28.236Z,94.40
2022-11-23T16:03:34.258Z,94.20
2022-11-23T16:06:38.955Z,94.30
2022-11-23T16:09:52.374Z,94.50
2022-11-23T16:12:56.869Z,94.50
2022-11-23T16:16:00.282Z,94.60
2022-11-23T16:19:20.019Z,94.70
2022-11-23T16:22:26.848Z,94.90
2022-11-23T16:25:39.442Z,94.80
2022-11-23T16:28:50.024Z,95.00
2022-11-23T16:32:00.183Z,95.10
2022-11-23T16:35:19.634Z,95.20
2022-11-23T16:38:22.574Z,95.40
2022-11-23T16:41:24.135Z,95.20
2022-11-23T16:44:25.877Z,95.30
2022-11-23T16:47:28.402Z,95.20
2022-11-23T16:50:32.694Z,95.70
2022-11-23T16:53:53.472Z,95.70
2022-11-23T16:56:56.011Z,95.80
2022-11-23T17:00:01.130Z,96.20
2022-11-23T17:03:02.679Z,96.40
2022-11-23T17:06:04.744Z,95.80
2022-11-23T17:09:08.129Z,95.90
2022-11-23T17:12:15.658Z,95.90
2022-11-23T17:15:22.376Z,96.30
2022-11-23T17:18:23.957Z,96.10
2022-11-23T17:21:28.382Z,96.40
2022-11-23T17:24:30.383Z,96.10
2022-11-23T17:27:35.355Z,96.20
2022-11-23T17:30:36.988Z,96.40
2022-11-23T17:33:38.775Z,96.70
2022-11-23T17:36:41.611Z,96.20
2022-11-23T17:39:43.226Z,96.40
2022-11-23T17:42:45.235Z,96.20
2022-11-23T17:45:50.930Z,96.40
2022-11-23T17:48:57.944Z,96.90
2022-11-23T17:51:59.498Z,96.50
2022-11-23T17:55:01.083Z,96.50
2022-11-23T17:58:07.131Z,96.60
2022-11-23T18:01:19.295Z,96.60
2022-11-23T18:04:25.002Z,96.40
2022-11-23T18:07:34.243Z,96.90
2022-11-23T18:10:42.958Z,97.60
2022-11-23T18:13:56.191Z,97.90
2022-11-23T18:16:58.419Z,98.60
2022-11-23T18:20:09.948Z,97.90
2022-11-23T18:23:13.095Z,97.90
2022-11-23T18:29:48.893Z,96.80
2022-11-23T18:33:15.473Z,98.10
2022-11-23T18:36:24.196Z,97.70
2022-11-23T18:39:25.734Z,97.70
2022-11-23T18:42:45.986Z,96.80
2022-11-23T18:45:54.445Z,95.90
2022-11-23T18:49:13.582Z,97.30
2022-11-23T18:52:20.322Z,95.60
2022-11-23T18:55:28.405Z,98.70
2022-11-23T18:58:42.493Z,97.50
2022-11-23T19:01:48.156Z,97.40
2022-11-23T19:04:55.860Z,97.60
2022-11-23T19:08:08.352Z,97.30
2022-11-23T19:11:16.410Z,97.70
2022-11-23T19:14:22.594Z,97.40
2022-11-23T19:17:30.770Z,98.70
2022-11-23T19:20:44.208Z,99.50
2022-11-23T19:24:04.740Z,98.70
2022-11-23T19:27:17.750Z,96.50
2022-11-23T19:30:26.018Z,97.60
2022-11-23T19:33:34.251Z,98.80
2022-11-23T19:36:52.376Z,96.30
2022-11-23T19:39:58.190Z,96.90
2022-11-23T19:43:03.917Z,97.50
2022-11-23T19:46:20.914Z,97.70
2022-11-23T19:49:52.909Z,97.10
2022-11-23T19:53:16.118Z,98.10
2022-11-23T19:56:41.724Z,98.20
2022-11-23T19:59:48.418Z,97.50
2022-11-23T20:02:59.527Z,99.30
2022-11-23T20:06:11.873Z,96.30
2022-11-23T20:09:26.811Z,97.60
2022-11-23T20:12:41.856Z,98.10
2022-11-23T20:16:04.977Z,97.90
2022-11-23T20:19:10.330Z,97.60
2022-11-23T20:22:12.012Z,97.70
2022-11-23T20:25:16.444Z,97.00
2022-11-23T20:28:18.084Z,97.60
2022-11-23T20:31:22.224Z,97.40
2022-11-23T20:34:26.261Z,97.50
2022-11-23T20:37:33.542Z,97.60
2022-11-23T20:40:37.373Z,97.60
2022-11-23T20:43:39.701Z,98.10
2022-11-23T20:50:03.834Z,97.70
2022-11-23T20:53:05.497Z,97.40
2022-11-23T20:56:10.186Z,97.60
2022-11-23T20:59:12.326Z,97.70
2022-11-23T21:02:14.347Z,97.80
2022-11-23T21:05:16.249Z,97.80
2022-11-23T21:08:27.872Z,97.80
2022-11-23T21:11:50.643Z,97.90
2022-11-23T21:14:53.036Z,97.80
2022-11-23T21:17:54.735Z,97.90
2022-11-23T21:20:56.447Z,97.80
2022-11-23T21:23:58.127Z,98.10
2022-11-23T21:27:02.849Z,97.80
2022-11-23T21:30:05.421Z,97.90
2022-11-23T21:33:07.001Z,98.10
2022-11-23T21:36:10.747Z,97.80
2022-11-23T21:39:12.843Z,98.00
2022-11-23T21:42:14.380Z,98.00
2022-11-23T21:45:16.871Z,98.00
2022-11-23T21:48:18.568Z,97.90
2022-11-23T21:51:20.480Z,97.80
2022-11-23T21:54:22.061Z,98.00
2022-11-23T21:57:23.586Z,97.90
2022-11-23T22:00:31.001Z,98.00
2022-11-23T22:03:43.592Z,98.00
2022-11-23T22:06:45.499Z,98.20
2022-11-23T22:09:47.237Z,97.80
2022-11-23T22:12:48.781Z,97.90
2022-11-23T22:15:51.930Z,98.10
2022-11-23T22:18:55.930Z,97.60
2022-11-23T22:21:57.955Z,98.10
2022-11-23T22:24:59.494Z,98.00
2022-11-23T22:28:01.077Z,98.10
2022-11-23T22:31:03.505Z,98.80
2022-11-23T22:34:07.287Z,98.20
2022-11-23T22:37:10.735Z,98.20
2022-11-23T22:40:12.715Z,98.10
2022-11-23T22:43:14.301Z,98.10
2022-11-23T22:46:18.587Z,98.00
2022-11-23T22:49:20.234Z,98.10
2022-11-23T22:52:21.794Z,98.00
2022-11-23T22:55:23.339Z,97.90
2022-11-23T22:58:24.865Z,97.90
2022-11-23T23:01:28.683Z,97.80
2022-11-23T23:04:30.283Z,97.80
2022-11-23T23:07:32.045Z,97.70
2022-11-23T23:10:35.538Z,97.80
2022-11-23T23:13:37.655Z,97.80
2022-11-23T23:16:39.245Z,98.00
2022-11-23T23:19:40.820Z,97.70
2022-11-23T23:22:43.128Z,97.70
2022-11-23T23:25:44.645Z,97.80
2022-11-23T23:28:46.563Z,97.80
2022-11-23T23:31:48.281Z,97.80
2022-11-23T23:34:49.882Z,97.60
2022-11-23T23:37:51.679Z,98.40
2022-11-23T23:40:56.445Z,98.20
2022-11-23T23:43:58.041Z,98.30
2022-11-23T23:46:59.713Z,98.10
2022-11-23T23:50:01.294Z,98.10
2022-11-23T23:53:02.836Z,98.30
2022-11-23T23:56:07.402Z,98.40
2022-11-23T23:59:08.919Z,98.40
